sensor_id;sensor_type;location;lat;lon;timestamp;pressure;altitude;pressure_sealevel;temperature;humidity
10732;BME280;5417;42.686;23.244;2023-02-12T00:00:28;95260.59;;;3.06;39.58
10732;BME280;5417;42.686;23.244;2023-02-12T00:02:55;95261.13;;;3.16;39.63
10732;BME280;5417;42.686;23.244;2023-02-12T00:05:22;95257.66;;;3.17;39.10
10732;BME280;5417;42.686;23.244;2023-02-12T00:07:49;95261.84;;;3.20;38.59
10732;BME280;5417;42.686;23.244;2023-02-12T00:10:16;95256.75;;;3.18;39.34
10732;BME280;5417;42.686;23.244;2023-02-12T00:12:43;95247.94;;;3.02;39.80
10732;BME280;5417;42.686;23.244;2023-02-12T00:15:10;95245.41;;;3.00;39.11
10732;BME280;5417;42.686;23.244;2023-02-12T00:17:38;95257.56;;;2.97;39.84
10732;BME280;5417;42.686;23.244;2023-02-12T00:20:06;95254.75;;;3.03;40.07
10732;BME280;5417;42.686;23.244;2023-02-12T00:22:33;95270.38;;;3.20;39.96
10732;BME280;5417;42.686;23.244;2023-02-12T00:25:00;95270.16;;;3.26;39.29
10732;BME280;5417;42.686;23.244;2023-02-12T00:30:18;95266.13;;;3.19;40.53
10732;BME280;5417;42.686;23.244;2023-02-12T00:36:52;95246.09;;;3.27;40.95
10732;BME280;5417;42.686;23.244;2023-02-12T00:39:35;95235.31;;;3.39;40.49
10732;BME280;5417;42.686;23.244;2023-02-12T00:45:48;95234.16;;;3.46;38.92
10732;BME280;5417;42.686;23.244;2023-02-12T00:48:17;95232.03;;;3.36;38.95
10732;BME280;5417;42.686;23.244;2023-02-12T00:52:24;95229.44;;;3.36;39.41
10732;BME280;5417;42.686;23.244;2023-02-12T01:01:14;95204.56;;;3.36;40.53
10732;BME280;5417;42.686;23.244;2023-02-12T01:03:54;95210.47;;;3.38;39.89
10732;BME280;5417;42.686;23.244;2023-02-12T01:06:20;95210.16;;;3.26;40.08
10732;BME280;5417;42.686;23.244;2023-02-12T01:17:42;95211.25;;;3.40;40.45
10732;BME280;5417;42.686;23.244;2023-02-12T01:29:09;95226.47;;;3.25;40.12
10732;BME280;5417;42.686;23.244;2023-02-12T01:32:07;95223.44;;;3.15;40.10
10732;BME280;5417;42.686;23.244;2023-02-12T01:34:45;95220.91;;;3.13;41.46
10732;BME280;5417;42.686;23.244;2023-02-12T01:37:14;95216.78;;;3.31;39.92
10732;BME280;5417;42.686;23.244;2023-02-12T01:39:41;95214.25;;;3.30;39.93
10732;BME280;5417;42.686;23.244;2023-02-12T01:42:19;95205.97;;;3.23;40.75
10732;BME280;5417;42.686;23.244;2023-02-12T01:47:48;95191.72;;;3.14;41.10
10732;BME280;5417;42.686;23.244;2023-02-12T01:50:30;95186.41;;;2.97;40.69
10732;BME280;5417;42.686;23.244;2023-02-12T01:55:54;95187.66;;;2.87;41.63
10732;BME280;5417;42.686;23.244;2023-02-12T01:58:24;95190.59;;;2.78;42.16
10732;BME280;5417;42.686;23.244;2023-02-12T02:01:07;95195.50;;;2.84;41.78
10732;BME280;5417;42.686;23.244;2023-02-12T02:03:38;95199.56;;;2.90;41.65
10732;BME280;5417;42.686;23.244;2023-02-12T02:06:29;95195.97;;;2.94;42.40
10732;BME280;5417;42.686;23.244;2023-02-12T02:08:57;95200.09;;;2.98;42.45
10732;BME280;5417;42.686;23.244;2023-02-12T02:11:24;95198.22;;;3.01;41.74
10732;BME280;5417;42.686;23.244;2023-02-12T02:14:09;95205.88;;;3.03;42.15
10732;BME280;5417;42.686;23.244;2023-02-12T02:27:22;95197.94;;;3.09;42.49
10732;BME280;5417;42.686;23.244;2023-02-12T02:33:09;95185.13;;;3.07;42.07
10732;BME280;5417;42.686;23.244;2023-02-12T02:35:41;95180.81;;;3.08;42.97
10732;BME280;5417;42.686;23.244;2023-02-12T02:51:18;95187.63;;;3.09;42.87
10732;BME280;5417;42.686;23.244;2023-02-12T02:53:51;95191.78;;;3.13;43.26
10732;BME280;5417;42.686;23.244;2023-02-12T02:56:22;95187.25;;;3.20;43.37
10732;BME280;5417;42.686;23.244;2023-02-12T02:59:25;95194.78;;;3.24;44.15
10732;BME280;5417;42.686;23.244;2023-02-12T03:02:48;95183.53;;;3.27;43.84
10732;BME280;5417;42.686;23.244;2023-02-12T03:29:11;95176.19;;;3.58;44.47
10732;BME280;5417;42.686;23.244;2023-02-12T03:31:47;95176.19;;;3.58;43.95
10732;BME280;5417;42.686;23.244;2023-02-12T03:34:24;95162.31;;;3.42;43.57
10732;BME280;5417;42.686;23.244;2023-02-12T03:36:55;95165.50;;;3.27;44.34
10732;BME280;5417;42.686;23.244;2023-02-12T03:39:27;95170.59;;;3.28;43.91
10732;BME280;5417;42.686;23.244;2023-02-12T03:42:00;95169.88;;;3.25;44.62
10732;BME280;5417;42.686;23.244;2023-02-12T03:47:26;95170.19;;;3.17;44.97
10732;BME280;5417;42.686;23.244;2023-02-12T03:50:02;95172.28;;;3.07;45.05
10732;BME280;5417;42.686;23.244;2023-02-12T03:52:31;95169.56;;;3.10;45.50
10732;BME280;5417;42.686;23.244;2023-02-12T03:58:31;95179.28;;;3.26;46.18
10732;BME280;5417;42.686;23.244;2023-02-12T04:29:47;95193.59;;;3.73;45.27
10732;BME280;5417;42.686;23.244;2023-02-12T04:34:19;95181.16;;;3.63;45.55
10732;BME280;5417;42.686;23.244;2023-02-12T04:36:43;95196.50;;;3.66;46.03
10732;BME280;5417;42.686;23.244;2023-02-12T04:45:38;95198.25;;;3.65;46.17
10732;BME280;5417;42.686;23.244;2023-02-12T05:03:53;95221.41;;;3.65;46.07
10732;BME280;5417;42.686;23.244;2023-02-12T05:06:20;95213.00;;;3.60;45.79
10732;BME280;5417;42.686;23.244;2023-02-12T05:08:46;95222.25;;;3.66;46.16
10732;BME280;5417;42.686;23.244;2023-02-12T05:11:13;95221.50;;;3.62;46.59
10732;BME280;5417;42.686;23.244;2023-02-12T05:13:40;95222.47;;;3.60;46.24
10732;BME280;5417;42.686;23.244;2023-02-12T05:16:21;95222.25;;;3.44;46.39
10732;BME280;5417;42.686;23.244;2023-02-12T05:18:48;95214.78;;;3.38;47.07
10732;BME280;5417;42.686;23.244;2023-02-12T05:24:45;95242.31;;;3.36;46.52
10732;BME280;5417;42.686;23.244;2023-02-12T05:27:22;95243.16;;;3.36;46.56
10732;BME280;5417;42.686;23.244;2023-02-12T05:32:49;95249.66;;;3.45;47.21
10732;BME280;5417;42.686;23.244;2023-02-12T05:33:11;95253.13;;;3.44;47.44
10732;BME280;5417;42.686;23.244;2023-02-12T05:35:38;95238.78;;;3.38;47.76
10732;BME280;5417;42.686;23.244;2023-02-12T05:38:05;95254.03;;;3.65;47.64
10732;BME280;5417;42.686;23.244;2023-02-12T05:40:33;95256.47;;;3.68;47.33
10732;BME280;5417;42.686;23.244;2023-02-12T05:43:00;95266.22;;;3.60;48.75
10732;BME280;5417;42.686;23.244;2023-02-12T05:45:27;95270.25;;;3.45;48.77
10732;BME280;5417;42.686;23.244;2023-02-12T05:47:54;95274.56;;;3.44;49.88
10732;BME280;5417;42.686;23.244;2023-02-12T05:50:21;95249.56;;;3.26;50.33
10732;BME280;5417;42.686;23.244;2023-02-12T05:54:17;95274.69;;;3.41;50.41
10732;BME280;5417;42.686;23.244;2023-02-12T05:56:19;95272.16;;;3.40;49.96
10732;BME280;5417;42.686;23.244;2023-02-12T05:59:04;95273.06;;;3.39;49.84
10732;BME280;5417;42.686;23.244;2023-02-12T06:01:33;95278.09;;;3.42;50.76
10732;BME280;5417;42.686;23.244;2023-02-12T06:04:02;95268.47;;;3.47;50.84
10732;BME280;5417;42.686;23.244;2023-02-12T06:06:39;95269.47;;;3.43;51.84
10732;BME280;5417;42.686;23.244;2023-02-12T06:10:06;95282.03;;;3.51;52.22
10732;BME280;5417;42.686;23.244;2023-02-12T06:12:20;95267.03;;;3.40;52.98
10732;BME280;5417;42.686;23.244;2023-02-12T06:17:58;95277.66;;;3.53;54.10
10732;BME280;5417;42.686;23.244;2023-02-12T06:20:25;95276.06;;;3.50;54.26
10732;BME280;5417;42.686;23.244;2023-02-12T06:22:52;95279.34;;;3.54;54.80
10732;BME280;5417;42.686;23.244;2023-02-12T06:25:19;95271.03;;;3.47;55.71
10732;BME280;5417;42.686;23.244;2023-02-12T06:27:47;95280.94;;;3.56;56.46
10732;BME280;5417;42.686;23.244;2023-02-12T06:30:15;95284.47;;;3.54;57.55
10732;BME280;5417;42.686;23.244;2023-02-12T06:35:20;95285.38;;;3.53;58.18
10732;BME280;5417;42.686;23.244;2023-02-12T06:37:47;95279.47;;;3.51;58.34
10732;BME280;5417;42.686;23.244;2023-02-12T06:40:14;95288.72;;;3.55;58.46
10732;BME280;5417;42.686;23.244;2023-02-12T06:42:42;95288.78;;;3.53;59.13
10732;BME280;5417;42.686;23.244;2023-02-12T06:45:10;95283.72;;;3.52;59.19
10732;BME280;5417;42.686;23.244;2023-02-12T06:47:37;95287.78;;;3.57;59.34
10732;BME280;5417;42.686;23.244;2023-02-12T06:50:12;95261.69;;;3.44;59.86
10732;BME280;5417;42.686;23.244;2023-02-12T06:52:39;95279.09;;;3.60;59.55
10732;BME280;5417;42.686;23.244;2023-02-12T06:55:12;95278.25;;;3.59;59.37
10732;BME280;5417;42.686;23.244;2023-02-12T06:57:41;95282.38;;;3.63;59.74
10732;BME280;5417;42.686;23.244;2023-02-12T07:00:12;95281.72;;;3.80;58.99
10732;BME280;5417;42.686;23.244;2023-02-12T07:02:41;95286.34;;;3.72;58.25
10732;BME280;5417;42.686;23.244;2023-02-12T07:05:10;95275.75;;;3.58;58.41
10732;BME280;5417;42.686;23.244;2023-02-12T07:07:37;95287.53;;;3.63;58.69
10732;BME280;5417;42.686;23.244;2023-02-12T07:10:05;95285.06;;;3.60;59.04
10732;BME280;5417;42.686;23.244;2023-02-12T07:12:33;95283.59;;;3.55;59.06
10732;BME280;5417;42.686;23.244;2023-02-12T07:15:00;95285.31;;;3.54;58.60
10732;BME280;5417;42.686;23.244;2023-02-12T07:17:29;95288.16;;;3.48;58.73
10732;BME280;5417;42.686;23.244;2023-02-12T07:19:56;95282.75;;;3.54;58.90
10732;BME280;5417;42.686;23.244;2023-02-12T07:22:24;95291.13;;;3.37;59.37
10732;BME280;5417;42.686;23.244;2023-02-12T07:24:51;95292.50;;;3.46;59.73
10732;BME280;5417;42.686;23.244;2023-02-12T07:27:17;95298.06;;;3.57;59.01
10732;BME280;5417;42.686;23.244;2023-02-12T07:29:44;95300.06;;;3.51;59.16
10732;BME280;5417;42.686;23.244;2023-02-12T07:32:11;95294.97;;;3.49;59.26
10732;BME280;5417;42.686;23.244;2023-02-12T07:34:40;95291.91;;;3.39;59.44
10732;BME280;5417;42.686;23.244;2023-02-12T07:37:08;95297.19;;;3.14;59.79
10732;BME280;5417;42.686;23.244;2023-02-12T07:39:34;95288.16;;;2.81;61.53
10732;BME280;5417;42.686;23.244;2023-02-12T07:42:01;95300.72;;;2.65;61.99
10732;BME280;5417;42.686;23.244;2023-02-12T07:44:31;95290.97;;;2.50;61.70
10732;BME280;5417;42.686;23.244;2023-02-12T07:46:58;95306.88;;;2.36;62.99
10732;BME280;5417;42.686;23.244;2023-02-12T07:49:25;95311.91;;;2.39;63.54
10732;BME280;5417;42.686;23.244;2023-02-12T07:51:54;95311.03;;;2.40;63.74
10732;BME280;5417;42.686;23.244;2023-02-12T07:54:21;95319.47;;;2.44;64.62
10732;BME280;5417;42.686;23.244;2023-02-12T07:56:49;95310.13;;;2.41;64.29
10732;BME280;5417;42.686;23.244;2023-02-12T07:59:17;95311.28;;;2.33;64.71
10732;BME280;5417;42.686;23.244;2023-02-12T08:01:48;95315.13;;;2.21;65.17
10732;BME280;5417;42.686;23.244;2023-02-12T08:04:17;95322.84;;;1.95;66.45
10732;BME280;5417;42.686;23.244;2023-02-12T08:06:46;95323.09;;;1.87;66.73
10732;BME280;5417;42.686;23.244;2023-02-12T08:09:17;95320.44;;;1.90;66.93
10732;BME280;5417;42.686;23.244;2023-02-12T08:11:45;95323.69;;;1.95;66.92
10732;BME280;5417;42.686;23.244;2023-02-12T08:14:13;95323.63;;;1.97;66.72
10732;BME280;5417;42.686;23.244;2023-02-12T08:16:43;95323.53;;;2.00;66.64
10732;BME280;5417;42.686;23.244;2023-02-12T08:19:11;95325.09;;;2.04;67.65
10732;BME280;5417;42.686;23.244;2023-02-12T08:21:38;95310.84;;;1.95;67.27
10732;BME280;5417;42.686;23.244;2023-02-12T08:24:05;95323.88;;;1.89;66.77
10732;BME280;5417;42.686;23.244;2023-02-12T08:26:35;95331.50;;;1.92;67.06
10732;BME280;5417;42.686;23.244;2023-02-12T08:29:04;95332.53;;;2.13;67.07
10732;BME280;5417;42.686;23.244;2023-02-12T08:31:33;95329.69;;;2.20;67.73
10732;BME280;5417;42.686;23.244;2023-02-12T08:34:01;95336.09;;;2.34;66.95
10732;BME280;5417;42.686;23.244;2023-02-12T08:36:30;95336.38;;;2.49;66.90
10732;BME280;5417;42.686;23.244;2023-02-12T08:39:01;95331.50;;;2.67;66.54
10732;BME280;5417;42.686;23.244;2023-02-12T08:41:29;95335.94;;;2.87;64.58
10732;BME280;5417;42.686;23.244;2023-02-12T08:44:00;95336.66;;;2.90;64.91
10732;BME280;5417;42.686;23.244;2023-02-12T08:46:28;95343.84;;;3.04;64.34
10732;BME280;5417;42.686;23.244;2023-02-12T08:48:59;95356.44;;;3.11;64.33
10732;BME280;5417;42.686;23.244;2023-02-12T08:51:29;95363.88;;;3.19;64.40
10732;BME280;5417;42.686;23.244;2023-02-12T08:53:58;95354.31;;;3.23;62.46
10732;BME280;5417;42.686;23.244;2023-02-12T08:56:26;95359.16;;;3.30;62.76
10732;BME280;5417;42.686;23.244;2023-02-12T08:58:56;95361.50;;;3.36;63.38
10732;BME280;5417;42.686;23.244;2023-02-12T09:01:26;95357.91;;;3.40;62.53
10732;BME280;5417;42.686;23.244;2023-02-12T09:03:53;95353.31;;;3.48;62.63
10732;BME280;5417;42.686;23.244;2023-02-12T09:06:22;95348.75;;;3.55;62.75
10732;BME280;5417;42.686;23.244;2023-02-12T09:08:49;95354.88;;;3.53;62.69
10732;BME280;5417;42.686;23.244;2023-02-12T09:11:19;95371.56;;;3.42;62.64
10732;BME280;5417;42.686;23.244;2023-02-12T09:13:49;95373.53;;;3.36;63.25
10732;BME280;5417;42.686;23.244;2023-02-12T09:16:17;95374.09;;;3.44;62.92
10732;BME280;5417;42.686;23.244;2023-02-12T09:18:44;95374.25;;;3.39;63.63
10732;BME280;5417;42.686;23.244;2023-02-12T09:21:12;95376.59;;;3.45;63.28
10732;BME280;5417;42.686;23.244;2023-02-12T09:23:41;95373.13;;;3.46;62.88
10732;BME280;5417;42.686;23.244;2023-02-12T09:26:10;95374.63;;;3.52;63.47
10732;BME280;5417;42.686;23.244;2023-02-12T09:28:38;95383.97;;;3.55;63.15
10732;BME280;5417;42.686;23.244;2023-02-12T09:31:05;95382.06;;;3.60;63.19
10732;BME280;5417;42.686;23.244;2023-02-12T09:33:34;95375.78;;;3.67;62.51
10732;BME280;5417;42.686;23.244;2023-02-12T09:36:02;95375.31;;;3.79;63.23
10732;BME280;5417;42.686;23.244;2023-02-12T09:38:29;95375.38;;;3.77;63.52
10732;BME280;5417;42.686;23.244;2023-02-12T09:41:10;95382.78;;;3.85;63.39
10732;BME280;5417;42.686;23.244;2023-02-12T09:43:43;95382.53;;;3.91;62.41
10732;BME280;5417;42.686;23.244;2023-02-12T09:46:18;95387.50;;;3.96;62.36
10732;BME280;5417;42.686;23.244;2023-02-12T09:48:58;95379.06;;;3.92;62.08
10732;BME280;5417;42.686;23.244;2023-02-12T09:51:27;95379.66;;;3.99;62.13
10732;BME280;5417;42.686;23.244;2023-02-12T09:54:02;95397.81;;;3.96;62.25
10732;BME280;5417;42.686;23.244;2023-02-12T09:56:30;95395.47;;;4.11;61.43
10732;BME280;5417;42.686;23.244;2023-02-12T09:59:00;95393.13;;;4.05;61.21
10732;BME280;5417;42.686;23.244;2023-02-12T10:01:30;95398.53;;;3.99;61.00
10732;BME280;5417;42.686;23.244;2023-02-12T10:03:59;95402.00;;;3.98;61.45
10732;BME280;5417;42.686;23.244;2023-02-12T10:06:27;95403.31;;;4.08;61.50
10732;BME280;5417;42.686;23.244;2023-02-12T10:09:02;95384.03;;;3.97;61.27
10732;BME280;5417;42.686;23.244;2023-02-12T10:11:42;95401.56;;;4.09;61.15
10732;BME280;5417;42.686;23.244;2023-02-12T10:14:26;95402.22;;;4.14;60.78
10732;BME280;5417;42.686;23.244;2023-02-12T10:17:02;95403.00;;;4.16;60.49
10732;BME280;5417;42.686;23.244;2023-02-12T10:19:53;95402.16;;;4.16;61.17
10732;BME280;5417;42.686;23.244;2023-02-12T10:22:34;95400.03;;;4.05;62.07
10732;BME280;5417;42.686;23.244;2023-02-12T10:25:14;95393.13;;;4.05;61.88
10732;BME280;5417;42.686;23.244;2023-02-12T10:27:48;95387.31;;;4.00;62.10
10732;BME280;5417;42.686;23.244;2023-02-12T10:30:20;95387.84;;;4.08;62.68
10732;BME280;5417;42.686;23.244;2023-02-12T10:32:52;95391.09;;;4.13;62.32
10732;BME280;5417;42.686;23.244;2023-02-12T10:35:22;95384.19;;;4.14;63.05
10732;BME280;5417;42.686;23.244;2023-02-12T10:37:55;95377.84;;;4.23;62.58
10732;BME280;5417;42.686;23.244;2023-02-12T10:40:26;95376.47;;;4.14;62.66
10732;BME280;5417;42.686;23.244;2023-02-12T10:42:55;95382.63;;;4.32;63.01
10732;BME280;5417;42.686;23.244;2023-02-12T10:45:25;95382.88;;;4.26;61.73
10732;BME280;5417;42.686;23.244;2023-02-12T10:48:04;95387.97;;;4.27;62.49
10732;BME280;5417;42.686;23.244;2023-02-12T10:50:40;95396.88;;;4.40;62.51
10732;BME280;5417;42.686;23.244;2023-02-12T10:53:17;95392.09;;;4.31;62.12
10732;BME280;5417;42.686;23.244;2023-02-12T10:55:44;95392.22;;;4.28;61.91
10732;BME280;5417;42.686;23.244;2023-02-12T10:58:20;95392.69;;;4.38;62.27
10732;BME280;5417;42.686;23.244;2023-02-12T11:00:55;95387.66;;;4.55;64.87
10732;BME280;5417;42.686;23.244;2023-02-12T11:03:27;95365.28;;;4.56;61.39
10732;BME280;5417;42.686;23.244;2023-02-12T11:06:11;95375.97;;;4.67;61.54
10732;BME280;5417;42.686;23.244;2023-02-12T11:08:38;95380.13;;;4.71;60.74
10732;BME280;5417;42.686;23.244;2023-02-12T11:11:09;95388.50;;;4.35;61.17
10732;BME280;5417;42.686;23.244;2023-02-12T11:13:38;95388.69;;;4.31;62.13
10732;BME280;5417;42.686;23.244;2023-02-12T11:16:07;95381.22;;;4.45;61.58
10732;BME280;5417;42.686;23.244;2023-02-12T11:18:36;95381.53;;;4.37;62.18
10732;BME280;5417;42.686;23.244;2023-02-12T11:21:05;95395.00;;;4.02;62.29
10732;BME280;5417;42.686;23.244;2023-02-12T11:23:35;95382.88;;;4.04;62.20
10732;BME280;5417;42.686;23.244;2023-02-12T11:26:04;95383.72;;;4.04;62.59
10732;BME280;5417;42.686;23.244;2023-02-12T11:28:33;95388.56;;;4.12;62.77
10732;BME280;5417;42.686;23.244;2023-02-12T11:31:02;95385.84;;;3.95;62.86
10732;BME280;5417;42.686;23.244;2023-02-12T11:33:31;95383.38;;;3.92;63.42
10732;BME280;5417;42.686;23.244;2023-02-12T11:36:02;95388.34;;;3.96;63.04
10732;BME280;5417;42.686;23.244;2023-02-12T11:38:34;95388.28;;;3.98;62.71
10732;BME280;5417;42.686;23.244;2023-02-12T11:41:20;95385.66;;;3.99;62.79
10732;BME280;5417;42.686;23.244;2023-02-12T11:43:49;95391.75;;;3.97;63.70
10732;BME280;5417;42.686;23.244;2023-02-12T11:46:19;95397.28;;;3.88;63.19
10732;BME280;5417;42.686;23.244;2023-02-12T11:48:47;95387.16;;;3.83;63.27
10732;BME280;5417;42.686;23.244;2023-02-12T11:51:19;95390.47;;;3.87;62.59
10732;BME280;5417;42.686;23.244;2023-02-12T11:53:58;95388.84;;;3.84;62.83
10732;BME280;5417;42.686;23.244;2023-02-12T11:56:39;95386.63;;;3.97;63.07
10732;BME280;5417;42.686;23.244;2023-02-12T11:59:18;95384.88;;;4.19;63.32
10732;BME280;5417;42.686;23.244;2023-02-12T12:01:50;95382.28;;;4.19;62.31
10732;BME280;5417;42.686;23.244;2023-02-12T12:04:22;95387.78;;;4.10;62.93
10732;BME280;5417;42.686;23.244;2023-02-12T12:06:56;95386.66;;;4.17;62.75
10732;BME280;5417;42.686;23.244;2023-02-12T12:09:30;95388.28;;;4.20;63.04
10732;BME280;5417;42.686;23.244;2023-02-12T12:12:03;95397.91;;;4.36;62.36
10732;BME280;5417;42.686;23.244;2023-02-12T12:14:38;95398.53;;;4.41;61.20
10732;BME280;5417;42.686;23.244;2023-02-12T12:17:23;95396.94;;;4.39;62.30
10732;BME280;5417;42.686;23.244;2023-02-12T12:20:13;95397.81;;;4.18;62.03
10732;BME280;5417;42.686;23.244;2023-02-12T12:22:49;95399.91;;;4.08;62.48
10732;BME280;5417;42.686;23.244;2023-02-12T12:25:24;95396.00;;;3.98;62.63
10732;BME280;5417;42.686;23.244;2023-02-12T12:27:59;95390.09;;;3.96;61.89
10732;BME280;5417;42.686;23.244;2023-02-12T12:30:53;95395.88;;;4.23;63.04
10732;BME280;5417;42.686;23.244;2023-02-12T12:33:31;95397.97;;;4.35;61.95
10732;BME280;5417;42.686;23.244;2023-02-12T12:39:19;95395.75;;;4.66;61.80
10732;BME280;5417;42.686;23.244;2023-02-12T12:42:19;95395.69;;;4.68;61.24
10732;BME280;5417;42.686;23.244;2023-02-12T12:45:05;95387.78;;;4.52;61.59
10732;BME280;5417;42.686;23.244;2023-02-12T12:47:43;95382.50;;;4.55;61.05
10732;BME280;5417;42.686;23.244;2023-02-12T12:50:28;95406.59;;;4.54;61.24
10732;BME280;5417;42.686;23.244;2023-02-12T12:53:09;95406.53;;;4.56;61.10
10732;BME280;5417;42.686;23.244;2023-02-12T12:55:56;95404.84;;;4.55;61.17
10732;BME280;5417;42.686;23.244;2023-02-12T12:58:35;95408.78;;;4.63;61.37
10732;BME280;5417;42.686;23.244;2023-02-12T13:01:18;95414.63;;;4.68;60.70
10732;BME280;5417;42.686;23.244;2023-02-12T13:04:02;95417.56;;;4.80;60.56
10732;BME280;5417;42.686;23.244;2023-02-12T13:06:45;95419.19;;;4.82;60.73
10732;BME280;5417;42.686;23.244;2023-02-12T13:12:31;95429.41;;;5.04;60.75
10732;BME280;5417;42.686;23.244;2023-02-12T13:15:07;95428.69;;;5.21;60.16
10732;BME280;5417;42.686;23.244;2023-02-12T13:17:49;95426.41;;;5.33;59.94
10732;BME280;5417;42.686;23.244;2023-02-12T13:20:22;95426.75;;;5.45;59.70
10732;BME280;5417;42.686;23.244;2023-02-12T13:22:55;95428.38;;;5.47;59.58
10732;BME280;5417;42.686;23.244;2023-02-12T13:25:30;95434.50;;;5.45;59.48
10732;BME280;5417;42.686;23.244;2023-02-12T13:28:01;95423.47;;;5.60;59.09
10732;BME280;5417;42.686;23.244;2023-02-12T13:30:34;95425.44;;;5.74;57.38
10732;BME280;5417;42.686;23.244;2023-02-12T13:33:08;95427.66;;;5.62;58.27
10732;BME280;5417;42.686;23.244;2023-02-12T13:35:40;95422.91;;;5.53;58.42
10732;BME280;5417;42.686;23.244;2023-02-12T13:38:14;95432.34;;;5.35;58.28
10732;BME280;5417;42.686;23.244;2023-02-12T13:40:45;95436.66;;;5.35;58.75
10732;BME280;5417;42.686;23.244;2023-02-12T13:43:37;95439.88;;;5.40;59.66
10732;BME280;5417;42.686;23.244;2023-02-12T13:46:17;95439.66;;;5.45;59.60
10732;BME280;5417;42.686;23.244;2023-02-12T13:48:59;95439.88;;;5.59;58.87
10732;BME280;5417;42.686;23.244;2023-02-12T13:51:40;95437.94;;;5.64;58.56
10732;BME280;5417;42.686;23.244;2023-02-12T13:54:56;95444.91;;;5.62;58.66
10732;BME280;5417;42.686;23.244;2023-02-12T13:57:15;95455.44;;;5.57;59.13
10732;BME280;5417;42.686;23.244;2023-02-12T13:59:44;95447.75;;;5.56;57.89
10732;BME280;5417;42.686;23.244;2023-02-12T14:02:42;95451.41;;;5.52;57.98
10732;BME280;5417;42.686;23.244;2023-02-12T14:07:58;95453.41;;;5.45;58.37
10732;BME280;5417;42.686;23.244;2023-02-12T14:10:29;95458.66;;;5.44;58.81
10732;BME280;5417;42.686;23.244;2023-02-12T14:13:10;95462.50;;;5.54;58.13
10732;BME280;5417;42.686;23.244;2023-02-12T14:15:39;95459.00;;;5.55;58.04
10732;BME280;5417;42.686;23.244;2023-02-12T14:18:29;95466.53;;;5.59;57.82
10732;BME280;5417;42.686;23.244;2023-02-12T14:27:29;95487.00;;;5.04;59.11
10732;BME280;5417;42.686;23.244;2023-02-12T14:30:18;95488.88;;;5.01;59.23
10732;BME280;5417;42.686;23.244;2023-02-12T14:35:48;95495.59;;;4.85;60.34
10732;BME280;5417;42.686;23.244;2023-02-12T14:41:30;95504.69;;;4.73;60.75
10732;BME280;5417;42.686;23.244;2023-02-12T14:50:02;95518.47;;;4.92;60.56
10732;BME280;5417;42.686;23.244;2023-02-12T14:52:38;95519.31;;;4.93;60.42
10732;BME280;5417;42.686;23.244;2023-02-12T14:55:18;95526.16;;;4.94;60.30
10732;BME280;5417;42.686;23.244;2023-02-12T14:57:49;95512.38;;;5.35;76.34
10732;BME280;5417;42.686;23.244;2023-02-12T15:00:25;95521.53;;;5.61;65.55
10732;BME280;5417;42.686;23.244;2023-02-12T15:02:54;95517.75;;;5.50;62.40
10732;BME280;5417;42.686;23.244;2023-02-12T15:05:27;95526.06;;;5.56;60.39
10732;BME280;5417;42.686;23.244;2023-02-12T15:07:57;95521.19;;;5.50;60.34
10732;BME280;5417;42.686;23.244;2023-02-12T15:10:29;95532.00;;;5.58;59.69
10732;BME280;5417;42.686;23.244;2023-02-12T15:13:12;95536.47;;;5.55;60.17
10732;BME280;5417;42.686;23.244;2023-02-12T15:16:37;95553.34;;;5.43;60.42
10732;BME280;5417;42.686;23.244;2023-02-12T15:19:18;95556.41;;;5.51;60.05
10732;BME280;5417;42.686;23.244;2023-02-12T15:21:47;95561.28;;;5.38;59.63
10732;BME280;5417;42.686;23.244;2023-02-12T15:24:21;95559.88;;;5.31;60.75
10732;BME280;5417;42.686;23.244;2023-02-12T15:26:50;95577.34;;;5.45;59.81
10732;BME280;5417;42.686;23.244;2023-02-12T15:29:23;95579.75;;;5.29;60.76
10732;BME280;5417;42.686;23.244;2023-02-12T15:31:55;95583.66;;;5.38;60.40
10732;BME280;5417;42.686;23.244;2023-02-12T15:34:25;95590.06;;;5.29;60.78
10732;BME280;5417;42.686;23.244;2023-02-12T15:36:55;95580.34;;;5.14;60.75
10732;BME280;5417;42.686;23.244;2023-02-12T15:39:25;95597.63;;;5.12;61.14
10732;BME280;5417;42.686;23.244;2023-02-12T15:41:52;95597.38;;;5.18;61.27
10732;BME280;5417;42.686;23.244;2023-02-12T15:44:27;95598.41;;;5.14;63.30
10732;BME280;5417;42.686;23.244;2023-02-12T15:46:57;95605.47;;;5.51;67.16
10732;BME280;5417;42.686;23.244;2023-02-12T15:49:28;95607.34;;;5.48;63.69
10732;BME280;5417;42.686;23.244;2023-02-12T15:51:56;95602.66;;;5.37;61.69
10732;BME280;5417;42.686;23.244;2023-02-12T15:54:26;95601.16;;;5.31;61.70
10732;BME280;5417;42.686;23.244;2023-02-12T15:56:54;95606.25;;;5.33;61.63
10732;BME280;5417;42.686;23.244;2023-02-12T15:59:22;95583.56;;;5.19;61.45
10732;BME280;5417;42.686;23.244;2023-02-12T16:01:54;95618.66;;;5.25;61.14
10732;BME280;5417;42.686;23.244;2023-02-12T16:04:23;95623.25;;;5.17;61.71
10732;BME280;5417;42.686;23.244;2023-02-12T16:06:51;95623.94;;;5.22;61.42
10732;BME280;5417;42.686;23.244;2023-02-12T16:09:23;95632.31;;;5.27;61.50
10732;BME280;5417;42.686;23.244;2023-02-12T16:11:56;95639.81;;;5.33;61.18
10732;BME280;5417;42.686;23.244;2023-02-12T16:14:27;95645.69;;;5.15;61.75
10732;BME280;5417;42.686;23.244;2023-02-12T16:16:57;95640.91;;;5.05;62.28
10732;BME280;5417;42.686;23.244;2023-02-12T16:19:25;95642.84;;;5.00;62.41
10732;BME280;5417;42.686;23.244;2023-02-12T16:21:55;95646.25;;;5.01;62.83
10732;BME280;5417;42.686;23.244;2023-02-12T16:24:31;95656.69;;;4.98;62.20
10732;BME280;5417;42.686;23.244;2023-02-12T16:27:04;95661.03;;;4.97;63.11
10732;BME280;5417;42.686;23.244;2023-02-12T16:29:36;95664.63;;;4.93;63.12
10732;BME280;5417;42.686;23.244;2023-02-12T16:32:04;95664.69;;;4.92;62.67
10732;BME280;5417;42.686;23.244;2023-02-12T16:34:34;95651.38;;;4.81;63.02
10732;BME280;5417;42.686;23.244;2023-02-12T16:37:02;95675.00;;;4.92;63.06
10732;BME280;5417;42.686;23.244;2023-02-12T16:42:33;95684.72;;;4.85;62.92
10732;BME280;5417;42.686;23.244;2023-02-12T16:45:00;95680.59;;;4.81;63.44
10732;BME280;5417;42.686;23.244;2023-02-12T16:47:27;95675.66;;;4.75;63.50
10732;BME280;5417;42.686;23.244;2023-02-12T16:49:56;95673.25;;;4.70;63.08
10732;BME280;5417;42.686;23.244;2023-02-12T16:52:33;95676.94;;;4.63;62.92